sensor_id;sensor_type;location;lat;lon;timestamp;P1;durP1;ratioP1;P2;durP2;ratioP2
44048;SDS011;29717;47.028;15.470;2022-12-20T00:02:24;69.43;;;35.30;;
44048;SDS011;29717;47.028;15.470;2022-12-20T00:04:51;76.03;;;35.97;;
44048;SDS011;29717;47.028;15.470;2022-12-20T00:07:18;72.77;;;35.03;;
44048;SDS011;29717;47.028;15.470;2022-12-20T00:09:45;75.83;;;36.57;;
44048;SDS011;29717;47.028;15.470;2022-12-20T00:12:12;69.77;;;35.30;;
44048;SDS011;29717;47.028;15.470;2022-12-20T00:14:39;67.50;;;33.70;;
44048;SDS011;29717;47.028;15.470;2022-12-20T00:17:07;71.53;;;34.70;;
44048;SDS011;29717;47.028;15.470;2022-12-20T00:19:34;74.50;;;36.23;;
44048;SDS011;29717;47.028;15.470;2022-12-20T00:22:01;67.33;;;33.50;;
44048;SDS011;29717;47.028;15.470;2022-12-20T00:24:28;66.97;;;34.03;;
44048;SDS011;29717;47.028;15.470;2022-12-20T00:26:55;67.17;;;33.77;;
44048;SDS011;29717;47.028;15.470;2022-12-20T00:29:22;63.67;;;32.43;;
44048;SDS011;29717;47.028;15.470;2022-12-20T00:31:49;62.67;;;33.47;;
44048;SDS011;29717;47.028;15.470;2022-12-20T00:34:17;65.23;;;34.20;;
44048;SDS011;29717;47.028;15.470;2022-12-20T00:36:44;67.33;;;33.53;;
44048;SDS011;29717;47.028;15.470;2022-12-20T00:39:10;67.47;;;33.33;;
44048;SDS011;29717;47.028;15.470;2022-12-20T00:41:37;61.00;;;32.50;;
44048;SDS011;29717;47.028;15.470;2022-12-20T00:44:04;66.10;;;33.60;;
44048;SDS011;29717;47.028;15.470;2022-12-20T00:46:31;68.40;;;33.50;;
44048;SDS011;29717;47.028;15.470;2022-12-20T00:48:59;71.83;;;34.00;;
44048;SDS011;29717;47.028;15.470;2022-12-20T00:51:28;72.43;;;34.90;;
44048;SDS011;29717;47.028;15.470;2022-12-20T00:53:56;69.90;;;33.50;;
44048;SDS011;29717;47.028;15.470;2022-12-20T00:56:23;69.00;;;33.80;;
44048;SDS011;29717;47.028;15.470;2022-12-20T00:58:50;61.57;;;32.00;;
44048;SDS011;29717;47.028;15.470;2022-12-20T01:01:18;65.27;;;33.27;;
44048;SDS011;29717;47.028;15.470;2022-12-20T01:03:46;62.50;;;32.30;;
44048;SDS011;29717;47.028;15.470;2022-12-20T01:06:13;67.77;;;34.00;;
44048;SDS011;29717;47.028;15.470;2022-12-20T01:08:42;76.97;;;33.80;;
44048;SDS011;29717;47.028;15.470;2022-12-20T01:11:10;72.70;;;35.10;;
44048;SDS011;29717;47.028;15.470;2022-12-20T01:13:38;73.90;;;35.17;;
44048;SDS011;29717;47.028;15.470;2022-12-20T01:16:07;75.53;;;34.50;;
44048;SDS011;29717;47.028;15.470;2022-12-20T01:18:34;72.43;;;36.27;;
44048;SDS011;29717;47.028;15.470;2022-12-20T01:21:01;62.63;;;33.47;;
44048;SDS011;29717;47.028;15.470;2022-12-20T01:23:28;74.87;;;35.03;;
44048;SDS011;29717;47.028;15.470;2022-12-20T01:25:58;72.30;;;34.43;;
44048;SDS011;29717;47.028;15.470;2022-12-20T01:28:25;74.47;;;33.97;;
44048;SDS011;29717;47.028;15.470;2022-12-20T01:30:52;70.80;;;34.87;;
44048;SDS011;29717;47.028;15.470;2022-12-20T01:33:20;75.73;;;35.83;;
44048;SDS011;29717;47.028;15.470;2022-12-20T01:35:56;70.63;;;34.40;;
44048;SDS011;29717;47.028;15.470;2022-12-20T01:38:23;73.00;;;35.43;;
44048;SDS011;29717;47.028;15.470;2022-12-20T01:40:50;76.37;;;34.80;;
44048;SDS011;29717;47.028;15.470;2022-12-20T01:43:19;80.17;;;36.30;;
44048;SDS011;29717;47.028;15.470;2022-12-20T01:45:46;72.13;;;35.43;;
44048;SDS011;29717;47.028;15.470;2022-12-20T01:48:13;73.10;;;34.03;;
44048;SDS011;29717;47.028;15.470;2022-12-20T01:50:40;74.50;;;35.03;;
44048;SDS011;29717;47.028;15.470;2022-12-20T01:53:07;70.33;;;34.70;;
44048;SDS011;29717;47.028;15.470;2022-12-20T01:55:35;77.17;;;35.37;;
44048;SDS011;29717;47.028;15.470;2022-12-20T01:58:03;74.00;;;35.53;;
44048;SDS011;29717;47.028;15.470;2022-12-20T02:00:32;76.80;;;34.77;;
44048;SDS011;29717;47.028;15.470;2022-12-20T02:03:00;76.57;;;34.70;;
44048;SDS011;29717;47.028;15.470;2022-12-20T02:05:33;74.73;;;35.47;;
44048;SDS011;29717;47.028;15.470;2022-12-20T02:08:00;75.87;;;35.53;;
44048;SDS011;29717;47.028;15.470;2022-12-20T02:10:28;76.00;;;36.77;;
44048;SDS011;29717;47.028;15.470;2022-12-20T02:13:01;74.17;;;34.77;;
44048;SDS011;29717;47.028;15.470;2022-12-20T02:15:34;75.57;;;35.07;;
44048;SDS011;29717;47.028;15.470;2022-12-20T02:18:14;69.67;;;34.23;;
44048;SDS011;29717;47.028;15.470;2022-12-20T02:20:52;81.87;;;36.40;;
44048;SDS011;29717;47.028;15.470;2022-12-20T02:26:08;68.10;;;31.70;;
44048;SDS011;29717;47.028;15.470;2022-12-20T02:28:50;74.47;;;34.40;;
44048;SDS011;29717;47.028;15.470;2022-12-20T02:31:25;71.53;;;33.20;;
44048;SDS011;29717;47.028;15.470;2022-12-20T02:33:53;68.57;;;32.77;;
44048;SDS011;29717;47.028;15.470;2022-12-20T02:36:22;67.47;;;32.10;;
44048;SDS011;29717;47.028;15.470;2022-12-20T02:38:49;66.50;;;32.20;;
44048;SDS011;29717;47.028;15.470;2022-12-20T02:41:18;69.87;;;32.80;;
44048;SDS011;29717;47.028;15.470;2022-12-20T02:43:48;68.93;;;33.60;;
44048;SDS011;29717;47.028;15.470;2022-12-20T02:46:34;76.63;;;33.80;;
44048;SDS011;29717;47.028;15.470;2022-12-20T02:49:02;80.93;;;34.57;;
44048;SDS011;29717;47.028;15.470;2022-12-20T02:51:30;77.67;;;33.90;;
44048;SDS011;29717;47.028;15.470;2022-12-20T02:53:58;77.90;;;34.53;;
44048;SDS011;29717;47.028;15.470;2022-12-20T02:56:26;80.00;;;35.37;;
44048;SDS011;29717;47.028;15.470;2022-12-20T02:58:55;76.63;;;34.60;;
44048;SDS011;29717;47.028;15.470;2022-12-20T03:01:24;84.93;;;35.83;;
44048;SDS011;29717;47.028;15.470;2022-12-20T03:03:54;78.43;;;34.83;;
44048;SDS011;29717;47.028;15.470;2022-12-20T03:06:22;80.33;;;35.27;;
44048;SDS011;29717;47.028;15.470;2022-12-20T03:08:49;75.57;;;33.10;;
44048;SDS011;29717;47.028;15.470;2022-12-20T03:11:16;78.03;;;34.00;;
44048;SDS011;29717;47.028;15.470;2022-12-20T03:13:44;70.13;;;32.00;;
44048;SDS011;29717;47.028;15.470;2022-12-20T03:16:11;70.23;;;32.60;;
44048;SDS011;29717;47.028;15.470;2022-12-20T03:18:38;80.43;;;34.17;;
44048;SDS011;29717;47.028;15.470;2022-12-20T03:21:06;76.17;;;34.00;;
44048;SDS011;29717;47.028;15.470;2022-12-20T03:23:33;79.60;;;35.13;;
44048;SDS011;29717;47.028;15.470;2022-12-20T03:26:00;71.63;;;33.83;;
44048;SDS011;29717;47.028;15.470;2022-12-20T03:28:27;73.47;;;33.70;;
44048;SDS011;29717;47.028;15.470;2022-12-20T03:30:54;67.43;;;34.10;;
44048;SDS011;29717;47.028;15.470;2022-12-20T03:33:20;73.53;;;33.87;;
44048;SDS011;29717;47.028;15.470;2022-12-20T03:35:47;71.77;;;33.17;;
44048;SDS011;29717;47.028;15.470;2022-12-20T03:38:16;64.33;;;31.80;;
44048;SDS011;29717;47.028;15.470;2022-12-20T03:40:42;67.67;;;32.97;;
44048;SDS011;29717;47.028;15.470;2022-12-20T03:43:09;74.17;;;34.13;;
44048;SDS011;29717;47.028;15.470;2022-12-20T03:45:36;71.37;;;33.23;;
44048;SDS011;29717;47.028;15.470;2022-12-20T03:48:03;70.13;;;33.30;;
44048;SDS011;29717;47.028;15.470;2022-12-20T03:50:30;78.67;;;34.83;;
44048;SDS011;29717;47.028;15.470;2022-12-20T03:52:56;66.27;;;32.47;;
44048;SDS011;29717;47.028;15.470;2022-12-20T03:55:25;72.57;;;34.07;;
44048;SDS011;29717;47.028;15.470;2022-12-20T03:57:51;69.33;;;33.83;;
44048;SDS011;29717;47.028;15.470;2022-12-20T04:00:19;71.13;;;33.27;;
44048;SDS011;29717;47.028;15.470;2022-12-20T04:02:46;67.97;;;31.37;;
44048;SDS011;29717;47.028;15.470;2022-12-20T04:05:13;57.43;;;29.13;;
44048;SDS011;29717;47.028;15.470;2022-12-20T04:07:41;66.43;;;31.77;;
44048;SDS011;29717;47.028;15.470;2022-12-20T04:10:10;69.27;;;32.23;;
44048;SDS011;29717;47.028;15.470;2022-12-20T04:12:38;71.37;;;32.80;;
44048;SDS011;29717;47.028;15.470;2022-12-20T04:15:06;62.83;;;30.77;;
44048;SDS011;29717;47.028;15.470;2022-12-20T04:17:32;64.70;;;31.43;;
44048;SDS011;29717;47.028;15.470;2022-12-20T04:19:59;80.73;;;33.53;;
44048;SDS011;29717;47.028;15.470;2022-12-20T04:22:43;71.47;;;34.40;;
44048;SDS011;29717;47.028;15.470;2022-12-20T04:25:09;72.20;;;33.43;;
44048;SDS011;29717;47.028;15.470;2022-12-20T04:27:36;72.40;;;34.03;;
44048;SDS011;29717;47.028;15.470;2022-12-20T04:30:06;72.77;;;32.57;;
44048;SDS011;29717;47.028;15.470;2022-12-20T04:32:33;81.57;;;35.33;;
44048;SDS011;29717;47.028;15.470;2022-12-20T04:34:59;71.93;;;35.60;;
44048;SDS011;29717;47.028;15.470;2022-12-20T04:37:28;82.00;;;35.80;;
44048;SDS011;29717;47.028;15.470;2022-12-20T04:39:55;79.97;;;35.83;;
44048;SDS011;29717;47.028;15.470;2022-12-20T04:42:22;82.43;;;36.43;;
44048;SDS011;29717;47.028;15.470;2022-12-20T04:44:49;86.33;;;36.77;;
44048;SDS011;29717;47.028;15.470;2022-12-20T04:47:17;82.83;;;36.63;;
44048;SDS011;29717;47.028;15.470;2022-12-20T04:49:44;79.27;;;38.23;;
44048;SDS011;29717;47.028;15.470;2022-12-20T04:52:11;79.17;;;35.87;;
44048;SDS011;29717;47.028;15.470;2022-12-20T04:54:55;78.23;;;35.53;;
44048;SDS011;29717;47.028;15.470;2022-12-20T04:57:22;79.50;;;34.77;;
44048;SDS011;29717;47.028;15.470;2022-12-20T04:59:49;81.43;;;35.77;;
44048;SDS011;29717;47.028;15.470;2022-12-20T05:02:15;80.73;;;35.30;;
44048;SDS011;29717;47.028;15.470;2022-12-20T05:04:44;73.43;;;34.53;;
44048;SDS011;29717;47.028;15.470;2022-12-20T05:07:11;76.20;;;34.70;;
44048;SDS011;29717;47.028;15.470;2022-12-20T05:09:37;69.40;;;33.30;;
44048;SDS011;29717;47.028;15.470;2022-12-20T05:12:06;76.53;;;34.23;;
44048;SDS011;29717;47.028;15.470;2022-12-20T05:14:33;76.33;;;33.73;;
44048;SDS011;29717;47.028;15.470;2022-12-20T05:17:00;74.17;;;34.00;;
44048;SDS011;29717;47.028;15.470;2022-12-20T05:19:27;70.17;;;33.77;;
44048;SDS011;29717;47.028;15.470;2022-12-20T05:21:55;71.93;;;32.80;;
44048;SDS011;29717;47.028;15.470;2022-12-20T05:24:39;72.23;;;33.10;;
44048;SDS011;29717;47.028;15.470;2022-12-20T05:27:38;76.27;;;35.20;;
44048;SDS011;29717;47.028;15.470;2022-12-20T05:30:05;76.17;;;35.30;;
44048;SDS011;29717;47.028;15.470;2022-12-20T05:32:32;80.50;;;34.87;;
44048;SDS011;29717;47.028;15.470;2022-12-20T05:34:59;76.13;;;35.53;;
44048;SDS011;29717;47.028;15.470;2022-12-20T05:37:27;77.87;;;35.70;;
44048;SDS011;29717;47.028;15.470;2022-12-20T05:39:55;82.50;;;35.00;;
44048;SDS011;29717;47.028;15.470;2022-12-20T05:42:21;80.90;;;34.93;;
44048;SDS011;29717;47.028;15.470;2022-12-20T05:44:48;78.47;;;35.43;;
44048;SDS011;29717;47.028;15.470;2022-12-20T05:47:15;77.53;;;35.13;;
44048;SDS011;29717;47.028;15.470;2022-12-20T05:49:42;67.60;;;33.67;;
44048;SDS011;29717;47.028;15.470;2022-12-20T05:52:09;78.20;;;35.43;;
44048;SDS011;29717;47.028;15.470;2022-12-20T05:54:37;83.37;;;34.90;;
44048;SDS011;29717;47.028;15.470;2022-12-20T05:57:04;71.63;;;33.80;;
44048;SDS011;29717;47.028;15.470;2022-12-20T05:59:31;81.60;;;34.37;;
44048;SDS011;29717;47.028;15.470;2022-12-20T06:01:58;79.53;;;32.33;;
44048;SDS011;29717;47.028;15.470;2022-12-20T06:04:25;85.00;;;34.97;;
44048;SDS011;29717;47.028;15.470;2022-12-20T06:06:52;79.83;;;33.97;;
44048;SDS011;29717;47.028;15.470;2022-12-20T06:09:19;75.93;;;34.23;;
44048;SDS011;29717;47.028;15.470;2022-12-20T06:11:47;83.37;;;36.53;;
44048;SDS011;29717;47.028;15.470;2022-12-20T06:14:14;82.10;;;35.07;;
44048;SDS011;29717;47.028;15.470;2022-12-20T06:16:41;78.50;;;34.73;;
44048;SDS011;29717;47.028;15.470;2022-12-20T06:19:08;71.70;;;33.00;;
44048;SDS011;29717;47.028;15.470;2022-12-20T06:21:35;81.50;;;35.67;;
44048;SDS011;29717;47.028;15.470;2022-12-20T06:24:02;78.70;;;35.20;;
44048;SDS011;29717;47.028;15.470;2022-12-20T06:26:29;72.03;;;34.20;;
44048;SDS011;29717;47.028;15.470;2022-12-20T06:29:02;76.97;;;34.93;;
44048;SDS011;29717;47.028;15.470;2022-12-20T06:31:31;72.17;;;35.27;;
44048;SDS011;29717;47.028;15.470;2022-12-20T06:33:58;73.73;;;33.63;;
44048;SDS011;29717;47.028;15.470;2022-12-20T06:36:25;58.97;;;24.93;;
44048;SDS011;29717;47.028;15.470;2022-12-20T06:38:51;65.10;;;27.07;;
44048;SDS011;29717;47.028;15.470;2022-12-20T06:41:18;68.53;;;30.87;;
44048;SDS011;29717;47.028;15.470;2022-12-20T06:43:45;77.20;;;33.67;;
44048;SDS011;29717;47.028;15.470;2022-12-20T06:46:13;71.63;;;31.90;;
44048;SDS011;29717;47.028;15.470;2022-12-20T06:48:40;75.97;;;33.27;;
44048;SDS011;29717;47.028;15.470;2022-12-20T06:51:07;78.10;;;34.80;;
44048;SDS011;29717;47.028;15.470;2022-12-20T06:53:33;80.93;;;34.07;;
44048;SDS011;29717;47.028;15.470;2022-12-20T06:56:00;82.17;;;34.40;;
44048;SDS011;29717;47.028;15.470;2022-12-20T06:58:27;78.73;;;33.43;;
44048;SDS011;29717;47.028;15.470;2022-12-20T07:00:54;75.90;;;33.30;;
44048;SDS011;29717;47.028;15.470;2022-12-20T07:03:22;79.13;;;33.60;;
44048;SDS011;29717;47.028;15.470;2022-12-20T07:05:50;77.43;;;32.87;;
44048;SDS011;29717;47.028;15.470;2022-12-20T07:08:17;82.77;;;34.63;;
44048;SDS011;29717;47.028;15.470;2022-12-20T07:10:44;84.30;;;35.53;;
44048;SDS011;29717;47.028;15.470;2022-12-20T07:13:11;79.93;;;33.43;;
44048;SDS011;29717;47.028;15.470;2022-12-20T07:15:38;76.60;;;33.50;;
44048;SDS011;29717;47.028;15.470;2022-12-20T07:18:05;81.90;;;34.87;;
44048;SDS011;29717;47.028;15.470;2022-12-20T07:20:34;77.40;;;34.63;;
44048;SDS011;29717;47.028;15.470;2022-12-20T07:23:01;75.87;;;35.30;;
44048;SDS011;29717;47.028;15.470;2022-12-20T07:25:28;88.13;;;38.83;;
44048;SDS011;29717;47.028;15.470;2022-12-20T07:27:54;74.13;;;35.07;;
44048;SDS011;29717;47.028;15.470;2022-12-20T07:30:21;78.30;;;33.77;;
44048;SDS011;29717;47.028;15.470;2022-12-20T07:32:48;76.17;;;33.03;;
44048;SDS011;29717;47.028;15.470;2022-12-20T07:35:15;71.77;;;33.13;;
44048;SDS011;29717;47.028;15.470;2022-12-20T07:37:44;76.80;;;32.97;;
44048;SDS011;29717;47.028;15.470;2022-12-20T07:40:11;92.47;;;40.07;;
44048;SDS011;29717;47.028;15.470;2022-12-20T07:42:39;92.77;;;40.80;;
44048;SDS011;29717;47.028;15.470;2022-12-20T07:45:06;88.53;;;38.90;;
44048;SDS011;29717;47.028;15.470;2022-12-20T07:47:33;93.60;;;42.30;;
44048;SDS011;29717;47.028;15.470;2022-12-20T07:50:01;84.53;;;35.83;;
44048;SDS011;29717;47.028;15.470;2022-12-20T07:52:27;85.20;;;37.07;;
44048;SDS011;29717;47.028;15.470;2022-12-20T07:54:57;83.43;;;36.07;;
44048;SDS011;29717;47.028;15.470;2022-12-20T07:57:25;83.43;;;33.70;;
44048;SDS011;29717;47.028;15.470;2022-12-20T07:59:55;80.87;;;34.57;;
44048;SDS011;29717;47.028;15.470;2022-12-20T08:02:24;91.80;;;38.00;;
44048;SDS011;29717;47.028;15.470;2022-12-20T08:04:52;90.90;;;39.37;;
44048;SDS011;29717;47.028;15.470;2022-12-20T08:07:19;89.37;;;37.60;;
44048;SDS011;29717;47.028;15.470;2022-12-20T08:09:46;82.17;;;35.63;;
44048;SDS011;29717;47.028;15.470;2022-12-20T08:12:16;74.37;;;33.80;;
44048;SDS011;29717;47.028;15.470;2022-12-20T08:14:43;83.90;;;35.27;;
44048;SDS011;29717;47.028;15.470;2022-12-20T08:17:10;75.23;;;34.47;;
44048;SDS011;29717;47.028;15.470;2022-12-20T08:19:37;73.57;;;32.87;;
44048;SDS011;29717;47.028;15.470;2022-12-20T08:22:04;81.53;;;33.67;;
44048;SDS011;29717;47.028;15.470;2022-12-20T08:24:33;75.93;;;33.73;;
44048;SDS011;29717;47.028;15.470;2022-12-20T08:27:00;77.90;;;33.73;;
44048;SDS011;29717;47.028;15.470;2022-12-20T08:29:28;83.83;;;34.70;;
44048;SDS011;29717;47.028;15.470;2022-12-20T08:31:55;77.20;;;34.93;;
44048;SDS011;29717;47.028;15.470;2022-12-20T08:34:22;78.93;;;33.57;;
44048;SDS011;29717;47.028;15.470;2022-12-20T08:36:49;88.07;;;35.17;;
44048;SDS011;29717;47.028;15.470;2022-12-20T08:39:16;87.00;;;34.63;;
44048;SDS011;29717;47.028;15.470;2022-12-20T08:41:42;78.33;;;33.13;;
44048;SDS011;29717;47.028;15.470;2022-12-20T08:44:09;92.30;;;35.23;;
44048;SDS011;29717;47.028;15.470;2022-12-20T08:46:38;79.07;;;34.33;;
44048;SDS011;29717;47.028;15.470;2022-12-20T08:49:05;91.80;;;36.40;;
44048;SDS011;29717;47.028;15.470;2022-12-20T08:51:32;82.60;;;34.23;;
44048;SDS011;29717;47.028;15.470;2022-12-20T08:53:58;85.87;;;33.70;;
44048;SDS011;29717;47.028;15.470;2022-12-20T08:56:26;92.87;;;37.13;;
44048;SDS011;29717;47.028;15.470;2022-12-20T08:58:53;77.20;;;34.50;;
44048;SDS011;29717;47.028;15.470;2022-12-20T09:01:20;80.90;;;35.27;;
44048;SDS011;29717;47.028;15.470;2022-12-20T09:03:49;81.63;;;34.53;;
44048;SDS011;29717;47.028;15.470;2022-12-20T09:06:16;79.03;;;34.50;;
44048;SDS011;29717;47.028;15.470;2022-12-20T09:08:43;87.27;;;34.50;;
44048;SDS011;29717;47.028;15.470;2022-12-20T09:11:12;79.20;;;33.67;;
44048;SDS011;29717;47.028;15.470;2022-12-20T09:13:39;76.13;;;32.70;;
44048;SDS011;29717;47.028;15.470;2022-12-20T09:16:06;79.90;;;35.07;;
44048;SDS011;29717;47.028;15.470;2022-12-20T09:18:34;89.73;;;35.50;;
44048;SDS011;29717;47.028;15.470;2022-12-20T09:21:03;76.03;;;33.37;;
44048;SDS011;29717;47.028;15.470;2022-12-20T09:23:30;82.00;;;34.97;;
44048;SDS011;29717;47.028;15.470;2022-12-20T09:26:00;83.50;;;35.53;;
44048;SDS011;29717;47.028;15.470;2022-12-20T09:28:27;82.43;;;33.90;;
44048;SDS011;29717;47.028;15.470;2022-12-20T09:30:56;75.17;;;32.67;;
44048;SDS011;29717;47.028;15.470;2022-12-20T09:33:23;75.73;;;33.67;;
44048;SDS011;29717;47.028;15.470;2022-12-20T09:35:49;76.40;;;35.13;;
44048;SDS011;29717;47.028;15.470;2022-12-20T09:38:18;76.93;;;33.13;;
44048;SDS011;29717;47.028;15.470;2022-12-20T09:40:45;77.23;;;32.30;;
44048;SDS011;29717;47.028;15.470;2022-12-20T09:43:13;76.47;;;32.57;;
44048;SDS011;29717;47.028;15.470;2022-12-20T09:45:40;69.33;;;31.93;;
44048;SDS011;29717;47.028;15.470;2022-12-20T09:48:08;74.50;;;31.50;;
44048;SDS011;29717;47.028;15.470;2022-12-20T09:50:36;69.20;;;31.53;;
44048;SDS011;29717;47.028;15.470;2022-12-20T09:53:11;72.70;;;32.37;;
44048;SDS011;29717;47.028;15.470;2022-12-20T09:55:46;66.47;;;31.07;;
44048;SDS011;29717;47.028;15.470;2022-12-20T09:58:26;71.97;;;31.03;;
44048;SDS011;29717;47.028;15.470;2022-12-20T10:00:57;68.90;;;31.47;;
44048;SDS011;29717;47.028;15.470;2022-12-20T10:03:25;66.03;;;31.57;;
44048;SDS011;29717;47.028;15.470;2022-12-20T10:05:53;77.63;;;31.37;;
44048;SDS011;29717;47.028;15.470;2022-12-20T10:08:23;67.80;;;30.87;;
44048;SDS011;29717;47.028;15.470;2022-12-20T10:10:58;75.90;;;32.33;;
44048;SDS011;29717;47.028;15.470;2022-12-20T10:16:22;73.67;;;32.13;;
44048;SDS011;29717;47.028;15.470;2022-12-20T10:18:52;70.13;;;31.73;;
44048;SDS011;29717;47.028;15.470;2022-12-20T10:21:25;66.07;;;32.23;;
44048;SDS011;29717;47.028;15.470;2022-12-20T10:23:57;70.53;;;32.63;;
44048;SDS011;29717;47.028;15.470;2022-12-20T10:26:27;69.93;;;31.23;;
44048;SDS011;29717;47.028;15.470;2022-12-20T10:28:54;66.07;;;31.17;;
44048;SDS011;29717;47.028;15.470;2022-12-20T10:31:21;61.30;;;28.77;;
44048;SDS011;29717;47.028;15.470;2022-12-20T10:33:48;66.73;;;30.37;;
44048;SDS011;29717;47.028;15.470;2022-12-20T10:36:22;67.43;;;30.53;;
44048;SDS011;29717;47.028;15.470;2022-12-20T10:38:51;66.03;;;31.07;;
44048;SDS011;29717;47.028;15.470;2022-12-20T10:41:18;73.63;;;31.13;;
44048;SDS011;29717;47.028;15.470;2022-12-20T10:43:48;65.33;;;30.43;;
44048;SDS011;29717;47.028;15.470;2022-12-20T10:46:17;65.20;;;29.17;;
44048;SDS011;29717;47.028;15.470;2022-12-20T10:48:45;67.50;;;30.10;;
44048;SDS011;29717;47.028;15.470;2022-12-20T10:51:13;64.23;;;29.47;;
44048;SDS011;29717;47.028;15.470;2022-12-20T10:53:51;63.00;;;29.77;;
44048;SDS011;29717;47.028;15.470;2022-12-20T10:56:19;65.77;;;30.67;;
44048;SDS011;29717;47.028;15.470;2022-12-20T10:58:58;65.27;;;29.67;;
44048;SDS011;29717;47.028;15.470;2022-12-20T11:01:28;71.80;;;31.23;;
44048;SDS011;29717;47.028;15.470;2022-12-20T11:03:57;66.63;;;31.53;;
44048;SDS011;29717;47.028;15.470;2022-12-20T11:06:25;71.67;;;30.73;;
44048;SDS011;29717;47.028;15.470;2022-12-20T11:08:53;62.70;;;29.43;;
44048;SDS011;29717;47.028;15.470;2022-12-20T11:11:26;66.33;;;30.60;;
44048;SDS011;29717;47.028;15.470;2022-12-20T11:13:53;69.63;;;32.20;;
44048;SDS011;29717;47.028;15.470;2022-12-20T11:16:23;76.27;;;36.33;;
44048;SDS011;29717;47.028;15.470;2022-12-20T11:18:54;77.73;;;33.40;;
44048;SDS011;29717;47.028;15.470;2022-12-20T11:21:25;66.87;;;29.90;;
44048;SDS011;29717;47.028;15.470;2022-12-20T11:23:59;57.20;;;26.40;;
44048;SDS011;29717;47.028;15.470;2022-12-20T11:26:30;63.63;;;28.10;;
44048;SDS011;29717;47.028;15.470;2022-12-20T11:29:03;70.77;;;30.57;;
44048;SDS011;29717;47.028;15.470;2022-12-20T11:31:39;59.17;;;27.17;;
44048;SDS011;29717;47.028;15.470;2022-12-20T11:34:12;67.90;;;28.83;;
44048;SDS011;29717;47.028;15.470;2022-12-20T11:36:51;67.23;;;29.33;;
44048;SDS011;29717;47.028;15.470;2022-12-20T11:39:25;59.50;;;29.57;;
44048;SDS011;29717;47.028;15.470;2022-12-20T11:41:54;60.30;;;28.43;;
44048;SDS011;29717;47.028;15.470;2022-12-20T11:44:24;63.60;;;29.47;;
44048;SDS011;29717;47.028;15.470;2022-12-20T11:47:02;62.73;;;27.53;;
44048;SDS011;29717;47.028;15.470;2022-12-20T11:49:48;68.83;;;29.60;;
44048;SDS011;29717;47.028;15.470;2022-12-20T11:52:20;71.93;;;29.27;;
44048;SDS011;29717;47.028;15.470;2022-12-20T11:54:52;61.83;;;29.33;;
44048;SDS011;29717;47.028;15.470;2022-12-20T11:57:23;64.73;;;27.87;;
44048;SDS011;29717;47.028;15.470;2022-12-20T11:59:53;60.70;;;27.20;;
44048;SDS011;29717;47.028;15.470;2022-12-20T12:02:24;63.43;;;27.97;;
44048;SDS011;29717;47.028;15.470;2022-12-20T12:04:54;60.23;;;28.67;;
44048;SDS011;29717;47.028;15.470;2022-12-20T12:07:22;58.00;;;27.23;;
44048;SDS011;29717;47.028;15.470;2022-12-20T12:09:53;56.00;;;27.30;;
44048;SDS011;29717;47.028;15.470;2022-12-20T12:12:22;63.37;;;29.53;;
44048;SDS011;29717;47.028;15.470;2022-12-20T12:14:52;58.77;;;26.17;;
44048;SDS011;29717;47.028;15.470;2022-12-20T12:17:24;54.13;;;27.13;;
44048;SDS011;29717;47.028;15.470;2022-12-20T12:19:53;61.67;;;27.50;;
44048;SDS011;29717;47.028;15.470;2022-12-20T12:22:23;60.20;;;27.67;;
44048;SDS011;29717;47.028;15.470;2022-12-20T12:24:53;63.03;;;28.33;;
44048;SDS011;29717;47.028;15.470;2022-12-20T12:27:23;64.53;;;27.60;;
44048;SDS011;29717;47.028;15.470;2022-12-20T12:29:50;66.50;;;29.40;;
44048;SDS011;29717;47.028;15.470;2022-12-20T12:32:20;59.17;;;27.23;;
44048;SDS011;29717;47.028;15.470;2022-12-20T12:34:54;57.97;;;26.40;;
44048;SDS011;29717;47.028;15.470;2022-12-20T12:37:34;64.40;;;28.10;;
44048;SDS011;29717;47.028;15.470;2022-12-20T12:40:24;60.60;;;27.40;;
44048;SDS011;29717;47.028;15.470;2022-12-20T12:45:39;60.53;;;26.60;;
44048;SDS011;29717;47.028;15.470;2022-12-20T12:48:10;62.93;;;27.13;;
44048;SDS011;29717;47.028;15.470;2022-12-20T12:50:43;60.43;;;28.83;;
44048;SDS011;29717;47.028;15.470;2022-12-20T12:53:12;62.50;;;27.53;;
44048;SDS011;29717;47.028;15.470;2022-12-20T12:55:42;56.60;;;26.40;;
44048;SDS011;29717;47.028;15.470;2022-12-20T13:01:04;64.90;;;27.37;;
44048;SDS011;29717;47.028;15.470;2022-12-20T13:09:16;66.53;;;28.47;;
44048;SDS011;29717;47.028;15.470;2022-12-20T13:11:43;62.80;;;27.00;;
44048;SDS011;29717;47.028;15.470;2022-12-20T13:14:11;66.77;;;27.50;;
44048;SDS011;29717;47.028;15.470;2022-12-20T13:16:40;61.77;;;27.07;;
44048;SDS011;29717;47.028;15.470;2022-12-20T13:19:11;62.07;;;27.83;;
44048;SDS011;29717;47.028;15.470;2022-12-20T13:21:39;58.50;;;28.10;;
44048;SDS011;29717;47.028;15.470;2022-12-20T13:27:20;64.17;;;27.13;;
44048;SDS011;29717;47.028;15.470;2022-12-20T13:29:52;61.30;;;27.83;;
44048;SDS011;29717;47.028;15.470;2022-12-20T13:35:12;64.50;;;27.43;;
44048;SDS011;29717;47.028;15.470;2022-12-20T13:37:54;62.03;;;27.07;;
44048;SDS011;29717;47.028;15.470;2022-12-20T13:40:22;59.23;;;26.47;;
44048;SDS011;29717;47.028;15.470;2022-12-20T13:42:52;61.93;;;27.77;;
44048;SDS011;29717;47.028;15.470;2022-12-20T13:45:20;66.47;;;28.83;;
44048;SDS011;29717;47.028;15.470;2022-12-20T13:47:47;63.77;;;27.97;;
44048;SDS011;29717;47.028;15.470;2022-12-20T13:50:23;63.97;;;26.47;;
44048;SDS011;29717;47.028;15.470;2022-12-20T13:52:50;63.23;;;28.03;;
44048;SDS011;29717;47.028;15.470;2022-12-20T13:55:22;63.97;;;28.07;;
44048;SDS011;29717;47.028;15.470;2022-12-20T13:57:50;58.30;;;25.97;;
44048;SDS011;29717;47.028;15.470;2022-12-20T14:00:21;59.43;;;26.63;;
44048;SDS011;29717;47.028;15.470;2022-12-20T14:02:49;54.50;;;25.77;;
44048;SDS011;29717;47.028;15.470;2022-12-20T14:05:18;59.37;;;27.33;;
44048;SDS011;29717;47.028;15.470;2022-12-20T14:07:46;60.07;;;26.77;;
44048;SDS011;29717;47.028;15.470;2022-12-20T14:10:19;57.60;;;26.47;;
44048;SDS011;29717;47.028;15.470;2022-12-20T14:12:46;58.60;;;26.03;;
44048;SDS011;29717;47.028;15.470;2022-12-20T14:15:23;60.30;;;26.47;;
44048;SDS011;29717;47.028;15.470;2022-12-20T14:17:50;60.40;;;24.80;;
44048;SDS011;29717;47.028;15.470;2022-12-20T14:20:18;59.53;;;27.67;;
44048;SDS011;29717;47.028;15.470;2022-12-20T14:22:51;56.93;;;26.13;;
44048;SDS011;29717;47.028;15.470;2022-12-20T14:25:21;55.83;;;24.13;;
44048;SDS011;29717;47.028;15.470;2022-12-20T14:27:50;55.17;;;24.43;;
44048;SDS011;29717;47.028;15.470;2022-12-20T14:30:28;55.67;;;25.40;;
44048;SDS011;29717;47.028;15.470;2022-12-20T14:32:56;60.97;;;25.20;;
44048;SDS011;29717;47.028;15.470;2022-12-20T14:35:23;56.03;;;25.87;;
44048;SDS011;29717;47.028;15.470;2022-12-20T14:37:54;51.80;;;24.93;;
44048;SDS011;29717;47.028;15.470;2022-12-20T14:40:22;50.00;;;24.73;;
44048;SDS011;29717;47.028;15.470;2022-12-20T14:42:49;58.77;;;25.70;;